sensor_id;sensor_type;location;lat;lon;timestamp;temperature;humidity
22185;DHT22;11258;52.516;13.318;2023-04-02T00:08:04;4.40;99.90
22185;DHT22;11258;52.516;13.318;2023-04-02T00:10:36;4.30;99.90
22185;DHT22;11258;52.516;13.318;2023-04-02T00:15:34;4.20;99.90
22185;DHT22;11258;52.516;13.318;2023-04-02T00:18:02;4.10;99.90
22185;DHT22;11258;52.516;13.318;2023-04-02T00:20:30;4.10;99.90
22185;DHT22;11258;52.516;13.318;2023-04-02T00:22:57;4.20;99.90
22185;DHT22;11258;52.516;13.318;2023-04-02T00:25:26;4.10;99.90
22185;DHT22;11258;52.516;13.318;2023-04-02T00:27:53;4.10;99.90
22185;DHT22;11258;52.516;13.318;2023-04-02T00:30:19;4.00;99.90
22185;DHT22;11258;52.516;13.318;2023-04-02T00:32:44;4.00;99.90
22185;DHT22;11258;52.516;13.318;2023-04-02T00:35:30;3.90;99.90
22185;DHT22;11258;52.516;13.318;2023-04-02T00:37:56;3.90;99.90
22185;DHT22;11258;52.516;13.318;2023-04-02T00:40:28;3.90;99.90
22185;DHT22;11258;52.516;13.318;2023-04-02T00:42:57;4.10;99.90
22185;DHT22;11258;52.516;13.318;2023-04-02T00:45:34;4.20;99.90
22185;DHT22;11258;52.516;13.318;2023-04-02T00:51:00;4.20;99.90
22185;DHT22;11258;52.516;13.318;2023-04-02T00:53:33;4.20;99.90
22185;DHT22;11258;52.516;13.318;2023-04-02T00:56:00;4.10;99.90
22185;DHT22;11258;52.516;13.318;2023-04-02T00:58:31;4.00;99.90
22185;DHT22;11258;52.516;13.318;2023-04-02T01:00:57;4.00;99.90
22185;DHT22;11258;52.516;13.318;2023-04-02T01:03:33;4.00;99.90
22185;DHT22;11258;52.516;13.318;2023-04-02T01:06:09;4.10;99.90
22185;DHT22;11258;52.516;13.318;2023-04-02T01:14:29;4.00;99.90
22185;DHT22;11258;52.516;13.318;2023-04-02T01:22:57;4.10;99.90
22185;DHT22;11258;52.516;13.318;2023-04-02T01:28:23;4.10;99.90
22185;DHT22;11258;52.516;13.318;2023-04-02T01:30:56;4.10;99.90
22185;DHT22;11258;52.516;13.318;2023-04-02T01:33:27;4.10;99.90
22185;DHT22;11258;52.516;13.318;2023-04-02T01:36:02;4.00;99.90
22185;DHT22;11258;52.516;13.318;2023-04-02T01:38:36;4.00;99.90
22185;DHT22;11258;52.516;13.318;2023-04-02T01:41:39;3.90;99.90
22185;DHT22;11258;52.516;13.318;2023-04-02T01:44:11;4.00;99.90
22185;DHT22;11258;52.516;13.318;2023-04-02T01:46:41;4.00;99.90
22185;DHT22;11258;52.516;13.318;2023-04-02T01:49:16;4.00;99.90
22185;DHT22;11258;52.516;13.318;2023-04-02T01:51:45;4.10;99.90
22185;DHT22;11258;52.516;13.318;2023-04-02T01:54:12;4.00;99.90
22185;DHT22;11258;52.516;13.318;2023-04-02T01:56:40;3.90;99.90
22185;DHT22;11258;52.516;13.318;2023-04-02T01:59:08;4.00;99.90
22185;DHT22;11258;52.516;13.318;2023-04-02T02:01:49;3.90;99.90
22185;DHT22;11258;52.516;13.318;2023-04-02T02:04:17;4.00;99.90
22185;DHT22;11258;52.516;13.318;2023-04-02T02:06:43;4.10;99.90
22185;DHT22;11258;52.516;13.318;2023-04-02T02:09:19;4.00;99.90
22185;DHT22;11258;52.516;13.318;2023-04-02T02:11:47;3.90;99.90
22185;DHT22;11258;52.516;13.318;2023-04-02T02:14:16;3.90;99.90
22185;DHT22;11258;52.516;13.318;2023-04-02T02:16:44;3.90;99.90
22185;DHT22;11258;52.516;13.318;2023-04-02T02:19:26;3.90;99.90
22185;DHT22;11258;52.516;13.318;2023-04-02T02:21:56;3.80;99.90
22185;DHT22;11258;52.516;13.318;2023-04-02T02:24:31;4.00;99.90
22185;DHT22;11258;52.516;13.318;2023-04-02T02:29:27;3.90;99.90
22185;DHT22;11258;52.516;13.318;2023-04-02T02:31:55;3.90;99.90
22185;DHT22;11258;52.516;13.318;2023-04-02T02:34:30;3.90;99.90
22185;DHT22;11258;52.516;13.318;2023-04-02T02:37:03;4.00;99.90
22185;DHT22;11258;52.516;13.318;2023-04-02T02:39:38;3.90;99.90
22185;DHT22;11258;52.516;13.318;2023-04-02T02:44:47;3.80;99.90
22185;DHT22;11258;52.516;13.318;2023-04-02T02:47:21;3.80;99.90
22185;DHT22;11258;52.516;13.318;2023-04-02T02:49:57;3.80;99.90
22185;DHT22;11258;52.516;13.318;2023-04-02T02:52:31;3.90;99.90
22185;DHT22;11258;52.516;13.318;2023-04-02T02:55:02;3.80;99.90
22185;DHT22;11258;52.516;13.318;2023-04-02T02:57:32;3.70;99.90
22185;DHT22;11258;52.516;13.318;2023-04-02T03:00:01;3.70;99.90
22185;DHT22;11258;52.516;13.318;2023-04-02T03:02:30;3.80;99.90
22185;DHT22;11258;52.516;13.318;2023-04-02T03:04:56;3.80;99.90
22185;DHT22;11258;52.516;13.318;2023-04-02T03:07:24;3.70;99.90
22185;DHT22;11258;52.516;13.318;2023-04-02T03:10:16;3.80;99.90
22185;DHT22;11258;52.516;13.318;2023-04-02T03:13:17;3.80;99.90
22185;DHT22;11258;52.516;13.318;2023-04-02T03:18:56;3.80;99.90
22185;DHT22;11258;52.516;13.318;2023-04-02T03:21:35;3.80;99.90
22185;DHT22;11258;52.516;13.318;2023-04-02T03:27:21;3.80;99.90
22185;DHT22;11258;52.516;13.318;2023-04-02T03:30:04;3.70;99.90
22185;DHT22;11258;52.516;13.318;2023-04-02T03:32:37;3.80;99.90
22185;DHT22;11258;52.516;13.318;2023-04-02T03:36:09;3.80;99.90
22185;DHT22;11258;52.516;13.318;2023-04-02T03:38:20;3.80;99.90
22185;DHT22;11258;52.516;13.318;2023-04-02T03:41:10;3.70;99.90
22185;DHT22;11258;52.516;13.318;2023-04-02T03:43:45;3.70;99.90
22185;DHT22;11258;52.516;13.318;2023-04-02T03:46:29;3.80;99.90
22185;DHT22;11258;52.516;13.318;2023-04-02T03:48:59;3.80;99.90
22185;DHT22;11258;52.516;13.318;2023-04-02T03:51:29;3.80;99.90
22185;DHT22;11258;52.516;13.318;2023-04-02T03:53:57;3.80;99.90
22185;DHT22;11258;52.516;13.318;2023-04-02T04:02:06;4.00;99.90
22185;DHT22;11258;52.516;13.318;2023-04-02T04:04:38;4.00;99.90
22185;DHT22;11258;52.516;13.318;2023-04-02T04:07:08;3.90;99.90
22185;DHT22;11258;52.516;13.318;2023-04-02T04:09:36;3.90;99.90
22185;DHT22;11258;52.516;13.318;2023-04-02T04:14:41;3.80;99.90
22185;DHT22;11258;52.516;13.318;2023-04-02T04:19:45;3.90;99.90
22185;DHT22;11258;52.516;13.318;2023-04-02T04:22:22;3.90;99.90
22185;DHT22;11258;52.516;13.318;2023-04-02T04:24:55;3.80;99.90
22185;DHT22;11258;52.516;13.318;2023-04-02T04:30:04;3.90;99.90
22185;DHT22;11258;52.516;13.318;2023-04-02T04:32:36;3.80;99.90
22185;DHT22;11258;52.516;13.318;2023-04-02T04:37:47;3.90;99.90
22185;DHT22;11258;52.516;13.318;2023-04-02T04:40:22;3.90;99.90
22185;DHT22;11258;52.516;13.318;2023-04-02T04:42:53;3.90;99.90
22185;DHT22;11258;52.516;13.318;2023-04-02T04:47:56;3.80;99.90
22185;DHT22;11258;52.516;13.318;2023-04-02T04:51:06;3.80;99.90
22185;DHT22;11258;52.516;13.318;2023-04-02T04:53:19;3.90;99.90
22185;DHT22;11258;52.516;13.318;2023-04-02T04:55:47;3.90;99.90
22185;DHT22;11258;52.516;13.318;2023-04-02T05:00:55;3.90;99.90
22185;DHT22;11258;52.516;13.318;2023-04-02T05:06:36;3.90;99.90
22185;DHT22;11258;52.516;13.318;2023-04-02T05:09:21;4.00;99.90
22185;DHT22;11258;52.516;13.318;2023-04-02T05:12:08;4.00;99.90
22185;DHT22;11258;52.516;13.318;2023-04-02T05:14:49;4.00;99.90
22185;DHT22;11258;52.516;13.318;2023-04-02T05:17:33;4.00;99.90
22185;DHT22;11258;52.516;13.318;2023-04-02T05:20:05;4.00;99.90
22185;DHT22;11258;52.516;13.318;2023-04-02T05:22:55;4.10;99.90
22185;DHT22;11258;52.516;13.318;2023-04-02T05:25:24;4.10;99.90
22185;DHT22;11258;52.516;13.318;2023-04-02T05:28:53;4.20;99.90
22185;DHT22;11258;52.516;13.318;2023-04-02T05:31:12;4.20;99.90
22185;DHT22;11258;52.516;13.318;2023-04-02T05:33:44;4.30;99.90
22185;DHT22;11258;52.516;13.318;2023-04-02T05:36:12;4.30;99.90
22185;DHT22;11258;52.516;13.318;2023-04-02T05:38:46;4.30;99.90
22185;DHT22;11258;52.516;13.318;2023-04-02T05:41:27;4.20;99.90
22185;DHT22;11258;52.516;13.318;2023-04-02T05:44:06;4.30;99.90
22185;DHT22;11258;52.516;13.318;2023-04-02T05:46:35;4.30;99.90
22185;DHT22;11258;52.516;13.318;2023-04-02T05:49:08;4.40;99.90
22185;DHT22;11258;52.516;13.318;2023-04-02T05:51:44;4.50;99.90
22185;DHT22;11258;52.516;13.318;2023-04-02T05:54:33;4.50;99.90
22185;DHT22;11258;52.516;13.318;2023-04-02T05:57:05;4.50;99.90
22185;DHT22;11258;52.516;13.318;2023-04-02T05:59:37;4.40;99.90
22185;DHT22;11258;52.516;13.318;2023-04-02T06:09:48;4.50;99.90
22185;DHT22;11258;52.516;13.318;2023-04-02T06:14:44;4.60;99.90
22185;DHT22;11258;52.516;13.318;2023-04-02T06:17:15;4.70;99.90
22185;DHT22;11258;52.516;13.318;2023-04-02T06:19:41;4.70;99.90
22185;DHT22;11258;52.516;13.318;2023-04-02T06:22:15;4.70;99.90
22185;DHT22;11258;52.516;13.318;2023-04-02T06:24:44;4.70;99.90
22185;DHT22;11258;52.516;13.318;2023-04-02T06:27:13;4.70;99.90
22185;DHT22;11258;52.516;13.318;2023-04-02T06:29:44;4.80;99.90
22185;DHT22;11258;52.516;13.318;2023-04-02T06:32:11;4.80;99.90
22185;DHT22;11258;52.516;13.318;2023-04-02T06:34:38;5.10;99.90
22185;DHT22;11258;52.516;13.318;2023-04-02T06:37:22;5.50;99.90
22185;DHT22;11258;52.516;13.318;2023-04-02T06:39:49;5.90;99.90
22185;DHT22;11258;52.516;13.318;2023-04-02T06:42:41;5.70;99.90
22185;DHT22;11258;52.516;13.318;2023-04-02T06:45:21;5.70;99.90
22185;DHT22;11258;52.516;13.318;2023-04-02T06:47:49;5.70;99.90
22185;DHT22;11258;52.516;13.318;2023-04-02T06:50:24;7.60;99.90
22185;DHT22;11258;52.516;13.318;2023-04-02T06:52:58;8.20;99.90
22185;DHT22;11258;52.516;13.318;2023-04-02T06:57:55;7.50;99.90
22185;DHT22;11258;52.516;13.318;2023-04-02T07:00:38;7.30;99.90
22185;DHT22;11258;52.516;13.318;2023-04-02T07:03:07;6.90;99.90
22185;DHT22;11258;52.516;13.318;2023-04-02T07:05:38;6.50;99.90
22185;DHT22;11258;52.516;13.318;2023-04-02T07:08:03;6.30;99.90
22185;DHT22;11258;52.516;13.318;2023-04-02T07:10:29;6.30;99.90
22185;DHT22;11258;52.516;13.318;2023-04-02T07:12:55;6.30;99.90
22185;DHT22;11258;52.516;13.318;2023-04-02T07:15:20;6.10;99.90
22185;DHT22;11258;52.516;13.318;2023-04-02T07:17:48;5.80;99.90
22185;DHT22;11258;52.516;13.318;2023-04-02T07:20:25;5.90;99.90
22185;DHT22;11258;52.516;13.318;2023-04-02T07:22:52;5.80;99.90
22185;DHT22;11258;52.516;13.318;2023-04-02T07:25:18;5.80;99.90
22185;DHT22;11258;52.516;13.318;2023-04-02T07:27:43;5.90;99.90
22185;DHT22;11258;52.516;13.318;2023-04-02T07:30:09;6.10;99.90
22185;DHT22;11258;52.516;13.318;2023-04-02T07:32:35;6.00;99.90
22185;DHT22;11258;52.516;13.318;2023-04-02T07:35:03;6.20;99.90
22185;DHT22;11258;52.516;13.318;2023-04-02T07:37:29;6.80;99.90
22185;DHT22;11258;52.516;13.318;2023-04-02T07:39:55;7.40;99.90
22185;DHT22;11258;52.516;13.318;2023-04-02T07:42:21;7.10;99.90
22185;DHT22;11258;52.516;13.318;2023-04-02T07:44:47;7.40;99.90
22185;DHT22;11258;52.516;13.318;2023-04-02T07:47:12;7.10;99.90
22185;DHT22;11258;52.516;13.318;2023-04-02T07:49:38;6.80;99.90
22185;DHT22;11258;52.516;13.318;2023-04-02T07:52:04;6.30;99.90
22185;DHT22;11258;52.516;13.318;2023-04-02T07:54:29;6.00;99.90
22185;DHT22;11258;52.516;13.318;2023-04-02T07:56:55;6.10;99.90
22185;DHT22;11258;52.516;13.318;2023-04-02T07:59:21;6.00;99.90
22185;DHT22;11258;52.516;13.318;2023-04-02T08:01:47;6.00;99.90
22185;DHT22;11258;52.516;13.318;2023-04-02T08:04:17;6.00;99.90
22185;DHT22;11258;52.516;13.318;2023-04-02T08:06:43;5.90;99.90
22185;DHT22;11258;52.516;13.318;2023-04-02T08:09:09;5.80;99.90
22185;DHT22;11258;52.516;13.318;2023-04-02T08:11:34;5.90;99.90
22185;DHT22;11258;52.516;13.318;2023-04-02T08:14:00;6.10;99.90
22185;DHT22;11258;52.516;13.318;2023-04-02T08:16:25;6.20;99.90
22185;DHT22;11258;52.516;13.318;2023-04-02T08:18:52;6.00;99.90
22185;DHT22;11258;52.516;13.318;2023-04-02T08:21:17;5.90;99.90
22185;DHT22;11258;52.516;13.318;2023-04-02T08:23:43;5.80;99.90
22185;DHT22;11258;52.516;13.318;2023-04-02T08:26:09;5.70;99.90
22185;DHT22;11258;52.516;13.318;2023-04-02T08:28:40;5.80;99.90
22185;DHT22;11258;52.516;13.318;2023-04-02T08:31:06;6.00;99.90
22185;DHT22;11258;52.516;13.318;2023-04-02T08:33:33;5.90;99.90
22185;DHT22;11258;52.516;13.318;2023-04-02T08:35:58;6.10;99.90
22185;DHT22;11258;52.516;13.318;2023-04-02T08:38:25;6.10;99.90
22185;DHT22;11258;52.516;13.318;2023-04-02T08:40:53;6.20;99.90
22185;DHT22;11258;52.516;13.318;2023-04-02T08:43:39;6.30;99.90
22185;DHT22;11258;52.516;13.318;2023-04-02T08:46:20;6.30;99.90
22185;DHT22;11258;52.516;13.318;2023-04-02T08:48:52;6.40;99.90
22185;DHT22;11258;52.516;13.318;2023-04-02T08:51:33;6.40;99.90
22185;DHT22;11258;52.516;13.318;2023-04-02T08:54:17;6.20;99.90
22185;DHT22;11258;52.516;13.318;2023-04-02T08:56:56;5.90;99.90
22185;DHT22;11258;52.516;13.318;2023-04-02T08:59:43;6.00;99.90
22185;DHT22;11258;52.516;13.318;2023-04-02T09:02:27;5.90;99.90
22185;DHT22;11258;52.516;13.318;2023-04-02T09:04:56;6.10;99.90
22185;DHT22;11258;52.516;13.318;2023-04-02T09:07:22;6.10;99.90
22185;DHT22;11258;52.516;13.318;2023-04-02T09:09:49;6.20;99.90
22185;DHT22;11258;52.516;13.318;2023-04-02T09:12:24;6.50;99.90
22185;DHT22;11258;52.516;13.318;2023-04-02T09:17:35;7.00;99.90
22185;DHT22;11258;52.516;13.318;2023-04-02T09:20:22;7.00;99.90
22185;DHT22;11258;52.516;13.318;2023-04-02T09:22:50;7.00;99.90
22185;DHT22;11258;52.516;13.318;2023-04-02T09:25:20;7.00;99.90
22185;DHT22;11258;52.516;13.318;2023-04-02T09:27:49;7.00;99.90
22185;DHT22;11258;52.516;13.318;2023-04-02T09:32:59;7.60;99.90
22185;DHT22;11258;52.516;13.318;2023-04-02T09:35:32;7.50;99.90
22185;DHT22;11258;52.516;13.318;2023-04-02T09:38:10;7.30;99.90
22185;DHT22;11258;52.516;13.318;2023-04-02T09:41:03;7.50;99.90
22185;DHT22;11258;52.516;13.318;2023-04-02T09:43:32;7.70;99.90
22185;DHT22;11258;52.516;13.318;2023-04-02T09:46:14;7.70;99.90
22185;DHT22;11258;52.516;13.318;2023-04-02T09:48:56;7.90;99.90
22185;DHT22;11258;52.516;13.318;2023-04-02T09:51:29;8.00;99.90
22185;DHT22;11258;52.516;13.318;2023-04-02T09:56:31;8.80;99.90
22185;DHT22;11258;52.516;13.318;2023-04-02T09:59:05;8.80;99.90
22185;DHT22;11258;52.516;13.318;2023-04-02T10:04:39;7.90;99.90
22185;DHT22;11258;52.516;13.318;2023-04-02T10:07:38;8.20;99.90
22185;DHT22;11258;52.516;13.318;2023-04-02T10:10:25;8.90;99.90
22185;DHT22;11258;52.516;13.318;2023-04-02T10:12:58;9.00;99.90
22185;DHT22;11258;52.516;13.318;2023-04-02T10:15:30;9.00;99.90
22185;DHT22;11258;52.516;13.318;2023-04-02T10:18:22;9.00;99.90
22185;DHT22;11258;52.516;13.318;2023-04-02T10:20:51;8.80;99.90
22185;DHT22;11258;52.516;13.318;2023-04-02T10:23:18;8.80;99.90
22185;DHT22;11258;52.516;13.318;2023-04-02T10:25:53;8.80;99.90
22185;DHT22;11258;52.516;13.318;2023-04-02T10:31:13;8.60;99.90
22185;DHT22;11258;52.516;13.318;2023-04-02T10:33:46;8.20;99.90
22185;DHT22;11258;52.516;13.318;2023-04-02T10:39:27;8.10;99.90
22185;DHT22;11258;52.516;13.318;2023-04-02T10:42:03;8.60;99.90
22185;DHT22;11258;52.516;13.318;2023-04-02T10:52:29;9.10;99.90
22185;DHT22;11258;52.516;13.318;2023-04-02T10:55:06;8.80;99.90
22185;DHT22;11258;52.516;13.318;2023-04-02T10:57:39;9.00;99.90
22185;DHT22;11258;52.516;13.318;2023-04-02T11:03:05;9.50;99.90
22185;DHT22;11258;52.516;13.318;2023-04-02T11:05:52;9.20;99.90
22185;DHT22;11258;52.516;13.318;2023-04-02T11:08:43;9.10;99.90
22185;DHT22;11258;52.516;13.318;2023-04-02T11:11:21;8.90;99.90
22185;DHT22;11258;52.516;13.318;2023-04-02T11:14:04;8.80;99.90
22185;DHT22;11258;52.516;13.318;2023-04-02T11:16:31;8.70;99.90
22185;DHT22;11258;52.516;13.318;2023-04-02T11:25:12;8.30;99.90
22185;DHT22;11258;52.516;13.318;2023-04-02T11:27:26;8.30;99.90
22185;DHT22;11258;52.516;13.318;2023-04-02T11:30:19;8.60;99.90
22185;DHT22;11258;52.516;13.318;2023-04-02T11:32:47;8.40;99.90
22185;DHT22;11258;52.516;13.318;2023-04-02T11:37:50;8.70;99.90
22185;DHT22;11258;52.516;13.318;2023-04-02T11:42:48;8.70;99.90
22185;DHT22;11258;52.516;13.318;2023-04-02T11:52:53;8.40;99.90
22185;DHT22;11258;52.516;13.318;2023-04-02T11:55:25;8.20;99.90
22185;DHT22;11258;52.516;13.318;2023-04-02T12:04:04;8.20;99.90
22185;DHT22;11258;52.516;13.318;2023-04-02T12:07:09;8.20;99.90
22185;DHT22;11258;52.516;13.318;2023-04-02T12:09:51;8.50;99.90
22185;DHT22;11258;52.516;13.318;2023-04-02T12:12:31;8.80;99.90
22185;DHT22;11258;52.516;13.318;2023-04-02T12:14:58;8.50;99.90
22185;DHT22;11258;52.516;13.318;2023-04-02T12:17:29;8.40;99.90
22185;DHT22;11258;52.516;13.318;2023-04-02T12:20:02;8.30;99.90
22185;DHT22;11258;52.516;13.318;2023-04-02T12:22:40;8.30;99.90
22185;DHT22;11258;52.516;13.318;2023-04-02T12:25:26;8.50;99.90
22185;DHT22;11258;52.516;13.318;2023-04-02T12:30:35;8.90;99.90
22185;DHT22;11258;52.516;13.318;2023-04-02T12:33:39;8.90;99.90
22185;DHT22;11258;52.516;13.318;2023-04-02T12:36:25;9.00;99.90
22185;DHT22;11258;52.516;13.318;2023-04-02T12:38:55;8.80;99.90
22185;DHT22;11258;52.516;13.318;2023-04-02T12:41:27;8.90;99.90
22185;DHT22;11258;52.516;13.318;2023-04-02T12:44:05;9.10;99.90
22185;DHT22;11258;52.516;13.318;2023-04-02T12:46:37;9.20;99.90
22185;DHT22;11258;52.516;13.318;2023-04-02T12:51:50;9.10;99.90
22185;DHT22;11258;52.516;13.318;2023-04-02T12:54:17;9.20;99.90
22185;DHT22;11258;52.516;13.318;2023-04-02T12:56:43;9.20;99.90
22185;DHT22;11258;52.516;13.318;2023-04-02T12:59:27;9.10;99.90
22185;DHT22;11258;52.516;13.318;2023-04-02T13:01:56;9.00;99.90
22185;DHT22;11258;52.516;13.318;2023-04-02T13:04:22;9.00;99.90
22185;DHT22;11258;52.516;13.318;2023-04-02T13:06:50;9.10;99.90
22185;DHT22;11258;52.516;13.318;2023-04-02T13:09:33;9.30;99.90
22185;DHT22;11258;52.516;13.318;2023-04-02T13:12:00;9.50;99.90
22185;DHT22;11258;52.516;13.318;2023-04-02T13:14:27;9.50;99.90
22185;DHT22;11258;52.516;13.318;2023-04-02T13:16:53;9.40;99.90
22185;DHT22;11258;52.516;13.318;2023-04-02T13:19:32;9.30;99.90
22185;DHT22;11258;52.516;13.318;2023-04-02T13:22:01;9.50;99.90
22185;DHT22;11258;52.516;13.318;2023-04-02T13:24:29;9.40;99.90
22185;DHT22;11258;52.516;13.318;2023-04-02T13:26:58;9.30;99.90
22185;DHT22;11258;52.516;13.318;2023-04-02T13:29:33;9.40;99.90
22185;DHT22;11258;52.516;13.318;2023-04-02T13:32:02;9.40;99.90
22185;DHT22;11258;52.516;13.318;2023-04-02T13:34:28;9.10;99.90
22185;DHT22;11258;52.516;13.318;2023-04-02T13:36:54;9.00;99.90
22185;DHT22;11258;52.516;13.318;2023-04-02T13:39:21;9.10;99.90
22185;DHT22;11258;52.516;13.318;2023-04-02T13:41:58;9.10;99.90
22185;DHT22;11258;52.516;13.318;2023-04-02T13:44:27;9.30;99.90
22185;DHT22;11258;52.516;13.318;2023-04-02T13:46:54;9.60;99.90
22185;DHT22;11258;52.516;13.318;2023-04-02T13:49:21;9.40;99.90
22185;DHT22;11258;52.516;13.318;2023-04-02T13:51:49;9.20;99.90
22185;DHT22;11258;52.516;13.318;2023-04-02T13:54:20;9.20;99.90
22185;DHT22;11258;52.516;13.318;2023-04-02T13:56:47;9.20;99.90
22185;DHT22;11258;52.516;13.318;2023-04-02T13:59:13;9.30;99.90
22185;DHT22;11258;52.516;13.318;2023-04-02T14:01:40;9.20;99.90
22185;DHT22;11258;52.516;13.318;2023-04-02T14:04:09;9.30;99.90
22185;DHT22;11258;52.516;13.318;2023-04-02T14:21:01;9.60;99.90
22185;DHT22;11258;52.516;13.318;2023-04-02T14:26:25;9.30;99.90
22185;DHT22;11258;52.516;13.318;2023-04-02T14:29:32;9.20;99.90
22185;DHT22;11258;52.516;13.318;2023-04-02T14:32:04;9.00;99.90
22185;DHT22;11258;52.516;13.318;2023-04-02T14:37:09;9.20;99.90
22185;DHT22;11258;52.516;13.318;2023-04-02T14:42:20;9.20;99.90
22185;DHT22;11258;52.516;13.318;2023-04-02T14:47:49;9.00;99.90
22185;DHT22;11258;52.516;13.318;2023-04-02T14:50:20;9.00;99.90
22185;DHT22;11258;52.516;13.318;2023-04-02T14:52:50;9.20;99.90
22185;DHT22;11258;52.516;13.318;2023-04-02T14:55:26;9.10;99.90
22185;DHT22;11258;52.516;13.318;2023-04-02T14:57:58;9.20;99.90
22185;DHT22;11258;52.516;13.318;2023-04-02T15:00:37;9.00;99.90
22185;DHT22;11258;52.516;13.318;2023-04-02T15:03:20;8.90;99.90
22185;DHT22;11258;52.516;13.318;2023-04-02T15:05:57;8.80;99.90
22185;DHT22;11258;52.516;13.318;2023-04-02T15:11:03;8.70;99.90
22185;DHT22;11258;52.516;13.318;2023-04-02T15:13:42;8.60;99.90
22185;DHT22;11258;52.516;13.318;2023-04-02T15:16:10;8.80;99.90
22185;DHT22;11258;52.516;13.318;2023-04-02T15:18:38;8.90;99.90
22185;DHT22;11258;52.516;13.318;2023-04-02T15:30:06;8.60;99.90
22185;DHT22;11258;52.516;13.318;2023-04-02T15:32:37;8.30;99.90
22185;DHT22;11258;52.516;13.318;2023-04-02T15:35:39;8.30;99.90
22185;DHT22;11258;52.516;13.318;2023-04-02T15:38:15;8.30;99.90
22185;DHT22;11258;52.516;13.318;2023-04-02T15:46:21;8.10;99.90
22185;DHT22;11258;52.516;13.318;2023-04-02T16:00:30;8.30;99.90
22185;DHT22;11258;52.516;13.318;2023-04-02T16:03:10;8.20;99.90
22185;DHT22;11258;52.516;13.318;2023-04-02T16:05:47;8.20;99.90
22185;DHT22;11258;52.516;13.318;2023-04-02T16:08:52;8.00;99.90
22185;DHT22;11258;52.516;13.318;2023-04-02T16:11:23;8.00;99.90
22185;DHT22;11258;52.516;13.318;2023-04-02T16:13:49;8.00;99.90
22185;DHT22;11258;52.516;13.318;2023-04-02T16:16:26;7.90;99.90
22185;DHT22;11258;52.516;13.318;2023-04-02T16:18:55;7.90;99.90
22185;DHT22;11258;52.516;13.318;2023-04-02T16:21:25;8.00;99.90
22185;DHT22;11258;52.516;13.318;2023-04-02T16:23:52;7.90;99.90
22185;DHT22;11258;52.516;13.318;2023-04-02T16:32:04;7.60;99.90
22185;DHT22;11258;52.516;13.318;2023-04-02T16:34:58;7.60;99.90
22185;DHT22;11258;52.516;13.318;2023-04-02T16:37:41;7.60;99.90
22185;DHT22;11258;52.516;13.318;2023-04-02T16:43:15;7.50;99.90
22185;DHT22;11258;52.516;13.318;2023-04-02T16:46:11;7.50;99.90
22185;DHT22;11258;52.516;13.318;2023-04-02T16:48:53;7.50;99.90
22185;DHT22;11258;52.516;13.318;2023-04-02T16:57:32;7.20;99.90
22185;DHT22;11258;52.516;13.318;2023-04-02T17:03:14;7.10;99.90
22185;DHT22;11258;52.516;13.318;2023-04-02T17:08:50;7.00;99.90
22185;DHT22;11258;52.516;13.318;2023-04-02T17:11:40;7.00;99.90
22185;DHT22;11258;52.516;13.318;2023-04-02T17:16:42;7.00;99.90
22185;DHT22;11258;52.516;13.318;2023-04-02T17:19:10;6.90;99.90
22185;DHT22;11258;52.516;13.318;2023-04-02T17:21:39;6.90;99.90
22185;DHT22;11258;52.516;13.318;2023-04-02T17:24:18;6.80;99.90
22185;DHT22;11258;52.516;13.318;2023-04-02T17:27:01;6.70;99.90
22185;DHT22;11258;52.516;13.318;2023-04-02T17:29:49;6.70;99.90
22185;DHT22;11258;52.516;13.318;2023-04-02T17:32:28;6.60;99.90
22185;DHT22;11258;52.516;13.318;2023-04-02T17:34:56;6.50;99.90
22185;DHT22;11258;52.516;13.318;2023-04-02T17:38:01;6.50;99.90
22185;DHT22;11258;52.516;13.318;2023-04-02T17:40:49;6.60;99.90
22185;DHT22;11258;52.516;13.318;2023-04-02T17:45:55;6.40;99.90
22185;DHT22;11258;52.516;13.318;2023-04-02T17:56:24;6.20;99.90
22185;DHT22;11258;52.516;13.318;2023-04-02T18:04:37;6.00;99.90
22185;DHT22;11258;52.516;13.318;2023-04-02T18:13:39;6.00;99.90
22185;DHT22;11258;52.516;13.318;2023-04-02T18:24:27;5.70;99.90
22185;DHT22;11258;52.516;13.318;2023-04-02T18:29:48;5.60;99.90
22185;DHT22;11258;52.516;13.318;2023-04-02T18:51:27;5.40;99.90
22185;DHT22;11258;52.516;13.318;2023-04-02T18:54:36;5.30;99.90
22185;DHT22;11258;52.516;13.318;2023-04-02T18:57:15;5.20;99.90
22185;DHT22;11258;52.516;13.318;2023-04-02T18:59:57;5.20;99.90
22185;DHT22;11258;52.516;13.318;2023-04-02T19:02:43;5.20;99.90
22185;DHT22;11258;52.516;13.318;2023-04-02T19:05:53;5.10;99.90
22185;DHT22;11258;52.516;13.318;2023-04-02T19:08:19;5.00;99.90
22185;DHT22;11258;52.516;13.318;2023-04-02T19:10:51;5.00;99.90
22185;DHT22;11258;52.516;13.318;2023-04-02T19:13:19;4.90;99.90
22185;DHT22;11258;52.516;13.318;2023-04-02T19:15:59;5.00;99.90
22185;DHT22;11258;52.516;13.318;2023-04-02T19:20:56;4.90;99.90
22185;DHT22;11258;52.516;13.318;2023-04-02T19:23:50;5.00;99.90
22185;DHT22;11258;52.516;13.318;2023-04-02T19:26:25;5.00;99.90
22185;DHT22;11258;52.516;13.318;2023-04-02T19:29:16;4.90;99.90
22185;DHT22;11258;52.516;13.318;2023-04-02T19:37:42;4.80;99.90
22185;DHT22;11258;52.516;13.318;2023-04-02T19:40:30;4.60;99.90
22185;DHT22;11258;52.516;13.318;2023-04-02T19:42:59;4.50;99.90
22185;DHT22;11258;52.516;13.318;2023-04-02T19:45:37;4.50;99.90
22185;DHT22;11258;52.516;13.318;2023-04-02T19:48:17;4.60;99.90
22185;DHT22;11258;52.516;13.318;2023-04-02T19:50:44;4.60;99.90
22185;DHT22;11258;52.516;13.318;2023-04-02T19:53:09;4.50;99.90
22185;DHT22;11258;52.516;13.318;2023-04-02T19:55:35;4.50;99.90
22185;DHT22;11258;52.516;13.318;2023-04-02T19:58:01;4.60;99.90
22185;DHT22;11258;52.516;13.318;2023-04-02T20:00:27;4.60;99.90
22185;DHT22;11258;52.516;13.318;2023-04-02T20:02:53;4.50;99.90
22185;DHT22;11258;52.516;13.318;2023-04-02T20:05:18;4.40;99.90
22185;DHT22;11258;52.516;13.318;2023-04-02T20:07:44;4.30;99.90
22185;DHT22;11258;52.516;13.318;2023-04-02T20:10:10;4.40;99.90
22185;DHT22;11258;52.516;13.318;2023-04-02T20:12:35;4.30;99.90
22185;DHT22;11258;52.516;13.318;2023-04-02T20:15:03;4.10;99.90
22185;DHT22;11258;52.516;13.318;2023-04-02T20:17:29;4.30;99.90
22185;DHT22;11258;52.516;13.318;2023-04-02T20:19:54;4.20;99.90
22185;DHT22;11258;52.516;13.318;2023-04-02T20:22:21;4.20;99.90
22185;DHT22;11258;52.516;13.318;2023-04-02T20:24:47;4.20;99.90
22185;DHT22;11258;52.516;13.318;2023-04-02T20:27:13;4.10;99.90
22185;DHT22;11258;52.516;13.318;2023-04-02T20:29:38;4.10;99.90
22185;DHT22;11258;52.516;13.318;2023-04-02T20:32:07;4.00;99.90
22185;DHT22;11258;52.516;13.318;2023-04-02T20:34:33;4.00;99.90
22185;DHT22;11258;52.516;13.318;2023-04-02T20:36:58;3.90;99.90
22185;DHT22;11258;52.516;13.318;2023-04-02T20:39:24;4.00;99.90
22185;DHT22;11258;52.516;13.318;2023-04-02T20:41:50;3.90;99.90